sensor_id;sensor_type;location;lat;lon;timestamp;P1;durP1;ratioP1;P2;durP2;ratioP2
69779;SDS011;57052;55.602;38.096;2022-08-03T00:01:40;6.72;;;5.15;;
69779;SDS011;57052;55.602;38.096;2022-08-03T00:04:06;8.82;;;5.40;;
69779;SDS011;57052;55.602;38.096;2022-08-03T00:06:33;9.02;;;5.15;;
69779;SDS011;57052;55.602;38.096;2022-08-03T00:08:58;8.88;;;5.03;;
69779;SDS011;57052;55.602;38.096;2022-08-03T00:11:24;7.97;;;5.60;;
69779;SDS011;57052;55.602;38.096;2022-08-03T00:13:50;7.95;;;5.20;;
69779;SDS011;57052;55.602;38.096;2022-08-03T00:16:16;11.32;;;5.35;;
69779;SDS011;57052;55.602;38.096;2022-08-03T00:18:42;7.93;;;5.20;;
69779;SDS011;57052;55.602;38.096;2022-08-03T00:21:08;6.05;;;4.95;;
69779;SDS011;57052;55.602;38.096;2022-08-03T00:23:34;9.07;;;5.43;;
69779;SDS011;57052;55.602;38.096;2022-08-03T00:26:00;8.48;;;5.50;;
69779;SDS011;57052;55.602;38.096;2022-08-03T00:28:26;10.63;;;5.13;;
69779;SDS011;57052;55.602;38.096;2022-08-03T00:30:51;10.50;;;5.68;;
69779;SDS011;57052;55.602;38.096;2022-08-03T00:33:17;9.05;;;4.97;;
69779;SDS011;57052;55.602;38.096;2022-08-03T00:35:43;6.57;;;5.22;;
69779;SDS011;57052;55.602;38.096;2022-08-03T00:38:09;7.40;;;5.38;;
69779;SDS011;57052;55.602;38.096;2022-08-03T00:40:34;6.75;;;5.20;;
69779;SDS011;57052;55.602;38.096;2022-08-03T00:43:01;6.50;;;5.20;;
69779;SDS011;57052;55.602;38.096;2022-08-03T00:45:29;6.32;;;5.00;;
69779;SDS011;57052;55.602;38.096;2022-08-03T00:48:01;7.13;;;5.50;;
69779;SDS011;57052;55.602;38.096;2022-08-03T00:50:28;7.15;;;5.18;;
69779;SDS011;57052;55.602;38.096;2022-08-03T00:52:57;6.82;;;5.43;;
69779;SDS011;57052;55.602;38.096;2022-08-03T00:55:24;7.88;;;5.47;;
69779;SDS011;57052;55.602;38.096;2022-08-03T00:57:50;7.35;;;5.40;;
69779;SDS011;57052;55.602;38.096;2022-08-03T01:00:17;7.85;;;4.97;;
69779;SDS011;57052;55.602;38.096;2022-08-03T01:02:44;6.32;;;5.00;;
69779;SDS011;57052;55.602;38.096;2022-08-03T01:05:11;6.95;;;5.13;;
69779;SDS011;57052;55.602;38.096;2022-08-03T01:10:48;6.68;;;4.97;;
69779;SDS011;57052;55.602;38.096;2022-08-03T01:21:03;8.43;;;5.10;;
69779;SDS011;57052;55.602;38.096;2022-08-03T01:27:25;8.32;;;5.20;;
69779;SDS011;57052;55.602;38.096;2022-08-03T01:29:45;8.15;;;5.50;;
69779;SDS011;57052;55.602;38.096;2022-08-03T01:32:20;7.75;;;5.30;;
69779;SDS011;57052;55.602;38.096;2022-08-03T01:34:51;7.82;;;4.93;;
69779;SDS011;57052;55.602;38.096;2022-08-03T01:37:42;6.88;;;5.47;;
69779;SDS011;57052;55.602;38.096;2022-08-03T01:40:14;7.85;;;5.55;;
69779;SDS011;57052;55.602;38.096;2022-08-03T01:42:41;8.00;;;5.10;;
69779;SDS011;57052;55.602;38.096;2022-08-03T01:45:10;7.40;;;5.53;;
69779;SDS011;57052;55.602;38.096;2022-08-03T01:47:38;8.32;;;5.30;;
69779;SDS011;57052;55.602;38.096;2022-08-03T01:50:05;6.82;;;5.10;;
69779;SDS011;57052;55.602;38.096;2022-08-03T01:52:33;7.35;;;5.30;;
69779;SDS011;57052;55.602;38.096;2022-08-03T01:55:02;6.10;;;5.28;;
69779;SDS011;57052;55.602;38.096;2022-08-03T01:57:29;7.30;;;5.40;;
69779;SDS011;57052;55.602;38.096;2022-08-03T01:59:55;5.90;;;4.78;;
69779;SDS011;57052;55.602;38.096;2022-08-03T02:02:24;6.10;;;4.97;;
69779;SDS011;57052;55.602;38.096;2022-08-03T02:04:51;8.57;;;5.07;;
69779;SDS011;57052;55.602;38.096;2022-08-03T02:07:20;6.57;;;5.28;;
69779;SDS011;57052;55.602;38.096;2022-08-03T02:09:48;6.63;;;5.20;;
69779;SDS011;57052;55.602;38.096;2022-08-03T02:12:15;6.68;;;5.03;;
69779;SDS011;57052;55.602;38.096;2022-08-03T02:15:02;7.53;;;5.35;;
69779;SDS011;57052;55.602;38.096;2022-08-03T02:17:29;7.50;;;4.97;;
69779;SDS011;57052;55.602;38.096;2022-08-03T02:19:57;8.60;;;5.00;;
69779;SDS011;57052;55.602;38.096;2022-08-03T02:22:25;6.97;;;5.07;;
69779;SDS011;57052;55.602;38.096;2022-08-03T02:24:52;7.47;;;5.13;;
69779;SDS011;57052;55.602;38.096;2022-08-03T02:27:24;6.43;;;4.90;;
69779;SDS011;57052;55.602;38.096;2022-08-03T02:29:55;9.00;;;5.57;;
69779;SDS011;57052;55.602;38.096;2022-08-03T02:32:36;8.60;;;5.07;;
69779;SDS011;57052;55.602;38.096;2022-08-03T02:35:13;7.68;;;5.32;;
69779;SDS011;57052;55.602;38.096;2022-08-03T02:37:43;10.82;;;5.68;;
69779;SDS011;57052;55.602;38.096;2022-08-03T02:40:14;7.88;;;5.00;;
69779;SDS011;57052;55.602;38.096;2022-08-03T02:42:43;11.02;;;5.50;;
69779;SDS011;57052;55.602;38.096;2022-08-03T02:45:10;9.25;;;5.53;;
69779;SDS011;57052;55.602;38.096;2022-08-03T02:47:38;7.32;;;5.28;;
69779;SDS011;57052;55.602;38.096;2022-08-03T02:50:06;7.40;;;5.35;;
69779;SDS011;57052;55.602;38.096;2022-08-03T02:52:36;9.05;;;4.93;;
69779;SDS011;57052;55.602;38.096;2022-08-03T02:55:04;10.48;;;5.93;;
69779;SDS011;57052;55.602;38.096;2022-08-03T02:57:31;8.55;;;5.40;;
69779;SDS011;57052;55.602;38.096;2022-08-03T03:00:00;6.38;;;5.13;;
69779;SDS011;57052;55.602;38.096;2022-08-03T03:02:28;6.93;;;5.10;;
69779;SDS011;57052;55.602;38.096;2022-08-03T03:04:55;7.88;;;5.38;;
69779;SDS011;57052;55.602;38.096;2022-08-03T03:07:21;6.88;;;4.72;;
69779;SDS011;57052;55.602;38.096;2022-08-03T03:09:47;8.45;;;5.32;;
69779;SDS011;57052;55.602;38.096;2022-08-03T03:12:14;13.05;;;5.30;;
69779;SDS011;57052;55.602;38.096;2022-08-03T03:14:41;9.35;;;5.35;;
69779;SDS011;57052;55.602;38.096;2022-08-03T03:17:08;7.63;;;5.60;;
69779;SDS011;57052;55.602;38.096;2022-08-03T03:19:35;9.88;;;5.60;;
69779;SDS011;57052;55.602;38.096;2022-08-03T03:22:03;8.35;;;5.82;;
69779;SDS011;57052;55.602;38.096;2022-08-03T03:24:31;10.40;;;5.82;;
69779;SDS011;57052;55.602;38.096;2022-08-03T03:26:59;8.25;;;5.55;;
69779;SDS011;57052;55.602;38.096;2022-08-03T03:29:25;8.93;;;5.93;;
69779;SDS011;57052;55.602;38.096;2022-08-03T03:31:51;10.88;;;6.38;;
69779;SDS011;57052;55.602;38.096;2022-08-03T03:34:17;9.85;;;6.50;;
69779;SDS011;57052;55.602;38.096;2022-08-03T03:36:44;11.90;;;6.90;;
69779;SDS011;57052;55.602;38.096;2022-08-03T03:39:09;10.68;;;6.57;;
69779;SDS011;57052;55.602;38.096;2022-08-03T03:41:36;10.45;;;6.25;;
69779;SDS011;57052;55.602;38.096;2022-08-03T03:44:03;9.45;;;6.63;;
69779;SDS011;57052;55.602;38.096;2022-08-03T03:46:29;13.30;;;5.95;;
69779;SDS011;57052;55.602;38.096;2022-08-03T03:48:55;10.35;;;6.10;;
69779;SDS011;57052;55.602;38.096;2022-08-03T03:51:23;8.13;;;6.03;;
69779;SDS011;57052;55.602;38.096;2022-08-03T03:53:59;9.48;;;5.60;;
69779;SDS011;57052;55.602;38.096;2022-08-03T03:56:26;9.50;;;6.25;;
69779;SDS011;57052;55.602;38.096;2022-08-03T03:58:53;8.65;;;5.60;;
69779;SDS011;57052;55.602;38.096;2022-08-03T04:01:18;8.48;;;5.95;;
69779;SDS011;57052;55.602;38.096;2022-08-03T04:03:45;8.20;;;5.68;;
69779;SDS011;57052;55.602;38.096;2022-08-03T04:06:11;7.72;;;6.03;;
69779;SDS011;57052;55.602;38.096;2022-08-03T04:08:55;9.15;;;5.68;;
69779;SDS011;57052;55.602;38.096;2022-08-03T04:14:04;9.40;;;5.50;;
69779;SDS011;57052;55.602;38.096;2022-08-03T04:16:34;9.52;;;5.80;;
69779;SDS011;57052;55.602;38.096;2022-08-03T04:19:37;7.38;;;5.95;;
69779;SDS011;57052;55.602;38.096;2022-08-03T04:22:13;12.73;;;5.70;;
69779;SDS011;57052;55.602;38.096;2022-08-03T04:25:05;8.23;;;5.53;;
69779;SDS011;57052;55.602;38.096;2022-08-03T04:27:37;10.25;;;5.57;;
69779;SDS011;57052;55.602;38.096;2022-08-03T04:32:31;8.32;;;5.68;;
69779;SDS011;57052;55.602;38.096;2022-08-03T04:34:59;11.57;;;6.03;;
69779;SDS011;57052;55.602;38.096;2022-08-03T04:37:30;11.32;;;5.97;;
69779;SDS011;57052;55.602;38.096;2022-08-03T04:40:02;8.77;;;5.90;;
69779;SDS011;57052;55.602;38.096;2022-08-03T04:42:32;8.82;;;5.80;;
69779;SDS011;57052;55.602;38.096;2022-08-03T04:44:58;8.55;;;5.90;;
69779;SDS011;57052;55.602;38.096;2022-08-03T04:47:26;10.18;;;5.72;;
69779;SDS011;57052;55.602;38.096;2022-08-03T04:49:52;8.10;;;5.90;;
69779;SDS011;57052;55.602;38.096;2022-08-03T04:52:18;10.80;;;5.78;;
69779;SDS011;57052;55.602;38.096;2022-08-03T04:54:44;10.73;;;6.28;;
69779;SDS011;57052;55.602;38.096;2022-08-03T04:57:10;10.00;;;5.70;;
69779;SDS011;57052;55.602;38.096;2022-08-03T04:59:37;7.45;;;5.97;;
69779;SDS011;57052;55.602;38.096;2022-08-03T05:02:03;7.53;;;5.65;;
69779;SDS011;57052;55.602;38.096;2022-08-03T05:04:28;9.32;;;6.13;;
69779;SDS011;57052;55.602;38.096;2022-08-03T05:06:54;9.73;;;6.18;;
69779;SDS011;57052;55.602;38.096;2022-08-03T05:09:20;8.10;;;6.20;;
69779;SDS011;57052;55.602;38.096;2022-08-03T05:11:45;8.18;;;5.60;;
69779;SDS011;57052;55.602;38.096;2022-08-03T05:14:11;11.60;;;5.95;;
69779;SDS011;57052;55.602;38.096;2022-08-03T05:16:36;8.57;;;6.03;;
69779;SDS011;57052;55.602;38.096;2022-08-03T05:19:02;8.93;;;6.00;;
69779;SDS011;57052;55.602;38.096;2022-08-03T05:21:27;8.90;;;5.80;;
69779;SDS011;57052;55.602;38.096;2022-08-03T05:23:53;8.23;;;5.88;;
69779;SDS011;57052;55.602;38.096;2022-08-03T05:26:19;8.52;;;6.18;;
69779;SDS011;57052;55.602;38.096;2022-08-03T05:28:44;9.73;;;5.95;;
69779;SDS011;57052;55.602;38.096;2022-08-03T05:31:10;8.88;;;6.10;;
69779;SDS011;57052;55.602;38.096;2022-08-03T05:33:37;9.93;;;5.88;;
69779;SDS011;57052;55.602;38.096;2022-08-03T05:36:03;9.50;;;6.03;;
69779;SDS011;57052;55.602;38.096;2022-08-03T05:38:30;9.90;;;5.70;;
69779;SDS011;57052;55.602;38.096;2022-08-03T05:40:57;11.43;;;5.68;;
69779;SDS011;57052;55.602;38.096;2022-08-03T05:43:22;12.43;;;5.65;;
69779;SDS011;57052;55.602;38.096;2022-08-03T05:45:48;9.13;;;5.03;;
69779;SDS011;57052;55.602;38.096;2022-08-03T05:48:14;7.35;;;5.60;;
69779;SDS011;57052;55.602;38.096;2022-08-03T05:50:39;7.43;;;5.57;;
69779;SDS011;57052;55.602;38.096;2022-08-03T05:53:05;8.20;;;4.97;;
69779;SDS011;57052;55.602;38.096;2022-08-03T05:55:30;7.63;;;4.85;;
69779;SDS011;57052;55.602;38.096;2022-08-03T05:57:56;9.77;;;5.10;;
69779;SDS011;57052;55.602;38.096;2022-08-03T06:00:22;10.80;;;5.72;;
69779;SDS011;57052;55.602;38.096;2022-08-03T06:02:48;9.88;;;5.43;;
69779;SDS011;57052;55.602;38.096;2022-08-03T06:05:13;8.30;;;5.07;;
69779;SDS011;57052;55.602;38.096;2022-08-03T06:07:39;6.43;;;4.82;;
69779;SDS011;57052;55.602;38.096;2022-08-03T06:10:05;12.70;;;6.70;;
69779;SDS011;57052;55.602;38.096;2022-08-03T06:12:31;10.27;;;6.28;;
69779;SDS011;57052;55.602;38.096;2022-08-03T06:15:00;7.35;;;4.95;;
69779;SDS011;57052;55.602;38.096;2022-08-03T06:17:29;12.00;;;5.68;;
69779;SDS011;57052;55.602;38.096;2022-08-03T06:19:55;13.07;;;7.22;;
69779;SDS011;57052;55.602;38.096;2022-08-03T06:22:21;9.45;;;5.38;;
69779;SDS011;57052;55.602;38.096;2022-08-03T06:24:47;11.93;;;5.63;;
69779;SDS011;57052;55.602;38.096;2022-08-03T06:27:12;8.65;;;5.30;;
69779;SDS011;57052;55.602;38.096;2022-08-03T06:29:38;6.78;;;4.38;;
69779;SDS011;57052;55.602;38.096;2022-08-03T06:32:03;7.28;;;4.90;;
69779;SDS011;57052;55.602;38.096;2022-08-03T06:34:29;8.38;;;5.00;;
69779;SDS011;57052;55.602;38.096;2022-08-03T06:36:54;10.73;;;4.70;;
69779;SDS011;57052;55.602;38.096;2022-08-03T06:39:20;8.77;;;5.68;;
69779;SDS011;57052;55.602;38.096;2022-08-03T06:41:46;8.10;;;5.70;;
69779;SDS011;57052;55.602;38.096;2022-08-03T06:44:12;8.55;;;4.63;;
69779;SDS011;57052;55.602;38.096;2022-08-03T06:46:37;8.40;;;5.30;;
69779;SDS011;57052;55.602;38.096;2022-08-03T06:49:03;8.90;;;5.38;;
69779;SDS011;57052;55.602;38.096;2022-08-03T06:51:30;7.95;;;5.55;;
69779;SDS011;57052;55.602;38.096;2022-08-03T06:53:56;7.32;;;4.90;;
69779;SDS011;57052;55.602;38.096;2022-08-03T06:56:21;9.15;;;5.63;;
69779;SDS011;57052;55.602;38.096;2022-08-03T06:58:47;6.70;;;5.07;;
69779;SDS011;57052;55.602;38.096;2022-08-03T07:01:13;8.00;;;4.47;;
69779;SDS011;57052;55.602;38.096;2022-08-03T07:03:38;7.32;;;4.68;;
69779;SDS011;57052;55.602;38.096;2022-08-03T07:06:05;6.65;;;4.35;;
69779;SDS011;57052;55.602;38.096;2022-08-03T07:08:32;10.50;;;5.10;;
69779;SDS011;57052;55.602;38.096;2022-08-03T07:10:58;8.38;;;4.50;;
69779;SDS011;57052;55.602;38.096;2022-08-03T07:13:23;7.72;;;5.25;;
69779;SDS011;57052;55.602;38.096;2022-08-03T07:15:49;8.85;;;4.55;;
69779;SDS011;57052;55.602;38.096;2022-08-03T07:18:15;7.07;;;4.30;;
69779;SDS011;57052;55.602;38.096;2022-08-03T07:20:40;5.35;;;3.92;;
69779;SDS011;57052;55.602;38.096;2022-08-03T07:23:06;4.93;;;3.80;;
69779;SDS011;57052;55.602;38.096;2022-08-03T07:25:32;4.53;;;3.50;;
69779;SDS011;57052;55.602;38.096;2022-08-03T07:27:57;6.35;;;3.67;;
69779;SDS011;57052;55.602;38.096;2022-08-03T07:30:23;5.20;;;3.65;;
69779;SDS011;57052;55.602;38.096;2022-08-03T07:32:48;7.32;;;3.88;;
69779;SDS011;57052;55.602;38.096;2022-08-03T07:35:14;5.05;;;3.88;;
69779;SDS011;57052;55.602;38.096;2022-08-03T07:37:40;5.50;;;3.85;;
69779;SDS011;57052;55.602;38.096;2022-08-03T07:40:05;5.75;;;3.85;;
69779;SDS011;57052;55.602;38.096;2022-08-03T07:42:31;5.90;;;3.30;;
69779;SDS011;57052;55.602;38.096;2022-08-03T07:44:57;4.68;;;3.40;;
69779;SDS011;57052;55.602;38.096;2022-08-03T07:47:25;7.00;;;3.28;;
69779;SDS011;57052;55.602;38.096;2022-08-03T07:49:53;4.72;;;3.13;;
69779;SDS011;57052;55.602;38.096;2022-08-03T07:52:19;5.03;;;3.15;;
69779;SDS011;57052;55.602;38.096;2022-08-03T07:55:04;6.78;;;3.30;;
69779;SDS011;57052;55.602;38.096;2022-08-03T07:57:30;5.15;;;3.17;;
69779;SDS011;57052;55.602;38.096;2022-08-03T07:59:56;5.97;;;3.40;;
69779;SDS011;57052;55.602;38.096;2022-08-03T08:02:22;5.88;;;3.63;;
69779;SDS011;57052;55.602;38.096;2022-08-03T08:04:48;5.32;;;3.25;;
69779;SDS011;57052;55.602;38.096;2022-08-03T08:07:13;5.35;;;3.10;;
69779;SDS011;57052;55.602;38.096;2022-08-03T08:09:39;4.53;;;3.33;;
69779;SDS011;57052;55.602;38.096;2022-08-03T08:12:04;4.45;;;3.10;;
69779;SDS011;57052;55.602;38.096;2022-08-03T08:14:32;10.45;;;3.58;;
69779;SDS011;57052;55.602;38.096;2022-08-03T08:16:58;4.47;;;3.00;;
69779;SDS011;57052;55.602;38.096;2022-08-03T08:19:24;5.45;;;3.53;;
69779;SDS011;57052;55.602;38.096;2022-08-03T08:21:50;10.40;;;3.33;;
69779;SDS011;57052;55.602;38.096;2022-08-03T08:24:15;5.18;;;3.20;;
69779;SDS011;57052;55.602;38.096;2022-08-03T08:26:41;4.38;;;3.30;;
69779;SDS011;57052;55.602;38.096;2022-08-03T08:29:06;5.10;;;3.05;;
69779;SDS011;57052;55.602;38.096;2022-08-03T08:31:32;4.97;;;3.60;;
69779;SDS011;57052;55.602;38.096;2022-08-03T08:33:58;5.22;;;3.40;;
69779;SDS011;57052;55.602;38.096;2022-08-03T08:36:24;5.93;;;3.38;;
69779;SDS011;57052;55.602;38.096;2022-08-03T08:38:49;6.40;;;3.28;;
69779;SDS011;57052;55.602;38.096;2022-08-03T08:41:15;4.90;;;3.33;;
69779;SDS011;57052;55.602;38.096;2022-08-03T08:43:41;4.70;;;3.28;;
69779;SDS011;57052;55.602;38.096;2022-08-03T08:46:07;5.97;;;3.25;;
69779;SDS011;57052;55.602;38.096;2022-08-03T08:48:38;5.05;;;3.10;;
69779;SDS011;57052;55.602;38.096;2022-08-03T08:51:06;10.18;;;3.50;;
69779;SDS011;57052;55.602;38.096;2022-08-03T08:53:34;4.47;;;3.25;;
69779;SDS011;57052;55.602;38.096;2022-08-03T08:56:01;8.45;;;3.60;;
69779;SDS011;57052;55.602;38.096;2022-08-03T08:58:28;5.75;;;3.58;;
69779;SDS011;57052;55.602;38.096;2022-08-03T09:00:58;4.55;;;3.30;;
69779;SDS011;57052;55.602;38.096;2022-08-03T09:03:24;6.97;;;3.40;;
69779;SDS011;57052;55.602;38.096;2022-08-03T09:05:50;7.82;;;3.40;;
69779;SDS011;57052;55.602;38.096;2022-08-03T09:08:16;4.90;;;3.40;;
69779;SDS011;57052;55.602;38.096;2022-08-03T09:10:42;6.15;;;3.38;;
69779;SDS011;57052;55.602;38.096;2022-08-03T09:13:08;6.32;;;3.58;;
69779;SDS011;57052;55.602;38.096;2022-08-03T09:15:33;5.95;;;4.03;;
69779;SDS011;57052;55.602;38.096;2022-08-03T09:18:00;4.85;;;3.35;;
69779;SDS011;57052;55.602;38.096;2022-08-03T09:20:30;6.93;;;4.05;;
69779;SDS011;57052;55.602;38.096;2022-08-03T09:23:02;5.35;;;3.53;;
69779;SDS011;57052;55.602;38.096;2022-08-03T09:25:36;6.82;;;3.42;;
69779;SDS011;57052;55.602;38.096;2022-08-03T09:30:43;5.97;;;2.90;;
69779;SDS011;57052;55.602;38.096;2022-08-03T09:33:13;5.38;;;3.00;;
69779;SDS011;57052;55.602;38.096;2022-08-03T09:35:42;3.90;;;3.13;;
69779;SDS011;57052;55.602;38.096;2022-08-03T09:38:20;5.00;;;3.30;;
69779;SDS011;57052;55.602;38.096;2022-08-03T09:40:56;4.55;;;2.80;;
69779;SDS011;57052;55.602;38.096;2022-08-03T09:43:21;4.18;;;2.90;;
69779;SDS011;57052;55.602;38.096;2022-08-03T09:45:49;5.60;;;3.00;;
69779;SDS011;57052;55.602;38.096;2022-08-03T09:48:23;5.47;;;3.00;;
69779;SDS011;57052;55.602;38.096;2022-08-03T09:50:51;6.95;;;3.05;;
69779;SDS011;57052;55.602;38.096;2022-08-03T09:53:21;5.80;;;2.92;;
69779;SDS011;57052;55.602;38.096;2022-08-03T09:55:57;5.28;;;3.05;;
69779;SDS011;57052;55.602;38.096;2022-08-03T09:58:24;6.78;;;3.47;;
69779;SDS011;57052;55.602;38.096;2022-08-03T10:00:52;4.82;;;3.35;;
69779;SDS011;57052;55.602;38.096;2022-08-03T10:03:19;7.10;;;3.53;;
69779;SDS011;57052;55.602;38.096;2022-08-03T10:05:45;6.47;;;3.65;;
69779;SDS011;57052;55.602;38.096;2022-08-03T10:08:14;6.13;;;3.28;;
69779;SDS011;57052;55.602;38.096;2022-08-03T10:10:42;6.72;;;3.40;;
69779;SDS011;57052;55.602;38.096;2022-08-03T10:13:12;6.13;;;3.35;;
69779;SDS011;57052;55.602;38.096;2022-08-03T10:15:39;5.78;;;3.47;;
69779;SDS011;57052;55.602;38.096;2022-08-03T10:18:05;7.75;;;3.40;;
69779;SDS011;57052;55.602;38.096;2022-08-03T10:20:32;4.25;;;3.28;;
69779;SDS011;57052;55.602;38.096;2022-08-03T10:23:02;5.68;;;3.10;;
69779;SDS011;57052;55.602;38.096;2022-08-03T10:25:29;7.35;;;3.33;;
69779;SDS011;57052;55.602;38.096;2022-08-03T10:27:55;5.18;;;3.00;;
69779;SDS011;57052;55.602;38.096;2022-08-03T10:30:22;6.53;;;3.40;;
69779;SDS011;57052;55.602;38.096;2022-08-03T10:35:23;6.35;;;3.42;;
69779;SDS011;57052;55.602;38.096;2022-08-03T10:38:03;3.90;;;2.90;;
69779;SDS011;57052;55.602;38.096;2022-08-03T10:40:52;4.97;;;3.30;;
69779;SDS011;57052;55.602;38.096;2022-08-03T10:46:14;7.28;;;3.40;;
69779;SDS011;57052;55.602;38.096;2022-08-03T10:48:42;4.32;;;3.20;;
69779;SDS011;57052;55.602;38.096;2022-08-03T10:51:08;6.00;;;3.53;;
69779;SDS011;57052;55.602;38.096;2022-08-03T10:53:38;4.93;;;3.33;;
69779;SDS011;57052;55.602;38.096;2022-08-03T10:59:16;7.80;;;3.75;;
69779;SDS011;57052;55.602;38.096;2022-08-03T11:04:21;5.13;;;3.30;;
69779;SDS011;57052;55.602;38.096;2022-08-03T11:07:17;7.10;;;3.60;;
69779;SDS011;57052;55.602;38.096;2022-08-03T11:09:43;5.68;;;3.28;;
69779;SDS011;57052;55.602;38.096;2022-08-03T11:14:53;4.97;;;3.50;;
69779;SDS011;57052;55.602;38.096;2022-08-03T11:17:20;7.20;;;3.50;;
69779;SDS011;57052;55.602;38.096;2022-08-03T11:19:50;5.63;;;3.40;;
69779;SDS011;57052;55.602;38.096;2022-08-03T11:22:18;6.35;;;3.20;;
69779;SDS011;57052;55.602;38.096;2022-08-03T11:29:53;5.20;;;3.10;;
69779;SDS011;57052;55.602;38.096;2022-08-03T11:35:12;5.40;;;3.40;;
69779;SDS011;57052;55.602;38.096;2022-08-03T11:45:57;7.57;;;3.80;;
69779;SDS011;57052;55.602;38.096;2022-08-03T11:48:39;9.02;;;3.47;;
69779;SDS011;57052;55.602;38.096;2022-08-03T11:53:55;8.50;;;4.05;;
69779;SDS011;57052;55.602;38.096;2022-08-03T11:56:22;4.70;;;3.67;;
69779;SDS011;57052;55.602;38.096;2022-08-03T11:58:50;6.10;;;3.30;;
69779;SDS011;57052;55.602;38.096;2022-08-03T12:01:20;4.22;;;3.40;;
69779;SDS011;57052;55.602;38.096;2022-08-03T12:03:47;4.78;;;3.17;;
69779;SDS011;57052;55.602;38.096;2022-08-03T12:06:14;5.90;;;3.63;;
69779;SDS011;57052;55.602;38.096;2022-08-03T12:08:41;6.65;;;3.92;;
69779;SDS011;57052;55.602;38.096;2022-08-03T12:11:08;7.07;;;4.00;;
69779;SDS011;57052;55.602;38.096;2022-08-03T12:13:36;5.47;;;3.70;;
69779;SDS011;57052;55.602;38.096;2022-08-03T12:16:10;4.50;;;3.45;;
69779;SDS011;57052;55.602;38.096;2022-08-03T12:18:42;9.38;;;3.95;;
69779;SDS011;57052;55.602;38.096;2022-08-03T12:21:09;5.68;;;3.15;;
69779;SDS011;57052;55.602;38.096;2022-08-03T12:23:36;6.50;;;3.55;;
69779;SDS011;57052;55.602;38.096;2022-08-03T12:26:04;5.32;;;3.50;;
69779;SDS011;57052;55.602;38.096;2022-08-03T12:28:34;5.15;;;3.88;;
69779;SDS011;57052;55.602;38.096;2022-08-03T12:31:02;7.45;;;3.30;;
69779;SDS011;57052;55.602;38.096;2022-08-03T12:33:30;7.13;;;3.60;;
69779;SDS011;57052;55.602;38.096;2022-08-03T12:38:29;6.28;;;3.40;;
69779;SDS011;57052;55.602;38.096;2022-08-03T12:40:56;8.77;;;3.63;;
69779;SDS011;57052;55.602;38.096;2022-08-03T12:43:47;5.93;;;3.97;;
69779;SDS011;57052;55.602;38.096;2022-08-03T12:46:14;6.97;;;3.95;;
69779;SDS011;57052;55.602;38.096;2022-08-03T12:51:26;5.13;;;3.35;;
69779;SDS011;57052;55.602;38.096;2022-08-03T12:53:53;5.63;;;3.40;;
69779;SDS011;57052;55.602;38.096;2022-08-03T12:56:20;5.25;;;3.50;;
69779;SDS011;57052;55.602;38.096;2022-08-03T12:58:46;6.50;;;3.72;;
69779;SDS011;57052;55.602;38.096;2022-08-03T13:01:12;7.90;;;3.83;;
69779;SDS011;57052;55.602;38.096;2022-08-03T13:03:39;5.60;;;3.58;;
69779;SDS011;57052;55.602;38.096;2022-08-03T13:06:12;4.85;;;3.33;;
69779;SDS011;57052;55.602;38.096;2022-08-03T13:08:39;6.38;;;3.65;;
69779;SDS011;57052;55.602;38.096;2022-08-03T13:11:24;6.43;;;3.90;;
69779;SDS011;57052;55.602;38.096;2022-08-03T13:13:51;4.93;;;3.88;;
69779;SDS011;57052;55.602;38.096;2022-08-03T13:16:18;9.50;;;3.80;;
69779;SDS011;57052;55.602;38.096;2022-08-03T13:18:46;7.78;;;3.90;;
69779;SDS011;57052;55.602;38.096;2022-08-03T13:21:14;7.43;;;3.63;;
69779;SDS011;57052;55.602;38.096;2022-08-03T13:23:40;6.70;;;3.65;;
69779;SDS011;57052;55.602;38.096;2022-08-03T13:26:08;5.57;;;3.45;;
69779;SDS011;57052;55.602;38.096;2022-08-03T13:28:34;8.52;;;3.70;;
69779;SDS011;57052;55.602;38.096;2022-08-03T13:30:59;5.93;;;3.67;;
69779;SDS011;57052;55.602;38.096;2022-08-03T13:33:25;5.80;;;3.63;;
69779;SDS011;57052;55.602;38.096;2022-08-03T13:35:52;7.63;;;3.80;;
69779;SDS011;57052;55.602;38.096;2022-08-03T13:38:18;5.43;;;3.45;;
69779;SDS011;57052;55.602;38.096;2022-08-03T13:40:44;5.32;;;3.63;;
69779;SDS011;57052;55.602;38.096;2022-08-03T13:43:09;7.65;;;3.75;;
69779;SDS011;57052;55.602;38.096;2022-08-03T13:45:35;5.50;;;3.63;;
69779;SDS011;57052;55.602;38.096;2022-08-03T13:48:00;6.55;;;3.60;;
69779;SDS011;57052;55.602;38.096;2022-08-03T13:50:26;5.03;;;3.47;;
69779;SDS011;57052;55.602;38.096;2022-08-03T13:52:52;8.40;;;3.75;;
69779;SDS011;57052;55.602;38.096;2022-08-03T13:55:17;6.18;;;3.90;;
69779;SDS011;57052;55.602;38.096;2022-08-03T13:57:43;10.65;;;3.58;;
69779;SDS011;57052;55.602;38.096;2022-08-03T14:00:09;5.65;;;3.65;;
69779;SDS011;57052;55.602;38.096;2022-08-03T14:02:35;6.20;;;3.70;;
69779;SDS011;57052;55.602;38.096;2022-08-03T14:05:01;5.03;;;3.50;;
69779;SDS011;57052;55.602;38.096;2022-08-03T14:07:28;5.00;;;3.47;;
69779;SDS011;57052;55.602;38.096;2022-08-03T14:09:54;6.65;;;3.80;;
69779;SDS011;57052;55.602;38.096;2022-08-03T14:12:21;6.60;;;4.20;;
69779;SDS011;57052;55.602;38.096;2022-08-03T14:14:46;5.65;;;3.50;;
69779;SDS011;57052;55.602;38.096;2022-08-03T14:17:12;6.78;;;4.00;;
69779;SDS011;57052;55.602;38.096;2022-08-03T14:19:38;9.23;;;4.00;;
69779;SDS011;57052;55.602;38.096;2022-08-03T14:22:03;7.38;;;3.78;;
69779;SDS011;57052;55.602;38.096;2022-08-03T14:24:29;6.45;;;4.30;;
69779;SDS011;57052;55.602;38.096;2022-08-03T14:26:54;7.35;;;3.85;;
69779;SDS011;57052;55.602;38.096;2022-08-03T14:29:20;5.78;;;3.58;;
69779;SDS011;57052;55.602;38.096;2022-08-03T14:31:46;7.72;;;4.05;;
69779;SDS011;57052;55.602;38.096;2022-08-03T14:34:11;7.60;;;3.75;;
69779;SDS011;57052;55.602;38.096;2022-08-03T14:36:37;6.22;;;3.63;;
69779;SDS011;57052;55.602;38.096;2022-08-03T14:39:03;6.75;;;3.92;;
69779;SDS011;57052;55.602;38.096;2022-08-03T14:41:28;7.45;;;3.60;;
69779;SDS011;57052;55.602;38.096;2022-08-03T14:43:57;7.03;;;3.63;;
69779;SDS011;57052;55.602;38.096;2022-08-03T14:46:22;5.53;;;3.85;;
69779;SDS011;57052;55.602;38.096;2022-08-03T14:48:48;7.80;;;3.47;;
69779;SDS011;57052;55.602;38.096;2022-08-03T14:51:14;6.35;;;3.60;;
69779;SDS011;57052;55.602;38.096;2022-08-03T14:53:40;9.88;;;3.72;;
69779;SDS011;57052;55.602;38.096;2022-08-03T14:56:05;7.07;;;3.30;;
69779;SDS011;57052;55.602;38.096;2022-08-03T14:58:31;5.93;;;3.50;;
69779;SDS011;57052;55.602;38.096;2022-08-03T15:00:57;5.43;;;3.58;;
69779;SDS011;57052;55.602;38.096;2022-08-03T15:03:23;7.43;;;3.20;;
69779;SDS011;57052;55.602;38.096;2022-08-03T15:05:50;7.43;;;3.70;;
69779;SDS011;57052;55.602;38.096;2022-08-03T15:08:21;6.97;;;3.45;;
69779;SDS011;57052;55.602;38.096;2022-08-03T15:10:47;6.72;;;3.42;;
69779;SDS011;57052;55.602;38.096;2022-08-03T15:13:14;5.35;;;3.22;;
69779;SDS011;57052;55.602;38.096;2022-08-03T15:15:39;7.32;;;3.38;;
69779;SDS011;57052;55.602;38.096;2022-08-03T15:18:05;6.53;;;3.60;;
69779;SDS011;57052;55.602;38.096;2022-08-03T15:20:31;6.72;;;3.80;;
69779;SDS011;57052;55.602;38.096;2022-08-03T15:22:57;7.22;;;3.53;;
69779;SDS011;57052;55.602;38.096;2022-08-03T15:25:23;5.60;;;3.60;;
69779;SDS011;57052;55.602;38.096;2022-08-03T15:27:48;6.03;;;3.67;;
69779;SDS011;57052;55.602;38.096;2022-08-03T15:30:14;6.18;;;3.70;;
69779;SDS011;57052;55.602;38.096;2022-08-03T15:32:40;5.13;;;3.60;;
69779;SDS011;57052;55.602;38.096;2022-08-03T15:35:05;4.57;;;3.33;;
69779;SDS011;57052;55.602;38.096;2022-08-03T15:37:31;7.30;;;3.70;;